createdAt,value
2019-05-22T00:00:30.349Z,99.39
2019-05-22T00:02:57.402Z,99.45
2019-05-22T00:05:24.713Z,99.45
2019-05-22T00:07:51.761Z,99.44
2019-05-22T00:10:19.076Z,99.54
2019-05-22T00:12:47.261Z,99.47
2019-05-22T00:15:14.438Z,99.39
2019-05-22T00:17:41.498Z,99.44
2019-05-22T00:20:08.533Z,99.40
2019-05-22T00:22:35.590Z,99.34
2019-05-22T00:25:02.634Z,99.31
2019-05-22T00:27:29.984Z,99.34
2019-05-22T00:29:57.326Z,99.36
2019-05-22T00:32:24.381Z,99.42
2019-05-22T00:34:51.730Z,99.33
2019-05-22T00:37:18.853Z,99.37
2019-05-22T00:39:45.901Z,99.43
2019-05-22T00:42:13.281Z,99.47
2019-05-22T00:44:40.638Z,99.46
2019-05-22T00:47:07.688Z,99.26
2019-05-22T00:49:35.057Z,99.25
2019-05-22T00:52:02.089Z,99.28
2019-05-22T00:54:29.469Z,99.26
2019-05-22T00:56:56.526Z,99.32
2019-05-22T00:59:24.974Z,99.28
2019-05-22T01:01:53.250Z,99.21
2019-05-22T01:04:20.303Z,99.27
2019-05-22T01:06:47.387Z,99.24
2019-05-22T01:09:14.665Z,99.19
2019-05-22T01:11:42.077Z,99.02
2019-05-22T01:14:09.125Z,99.17
2019-05-22T01:16:36.478Z,99.25
2019-05-22T01:19:03.819Z,99.16
2019-05-22T01:21:31.187Z,99.19
2019-05-22T01:23:58.550Z,99.21
2019-05-22T01:26:25.589Z,99.09
2019-05-22T01:28:52.930Z,99.05
2019-05-22T01:31:19.974Z,99.03
2019-05-22T01:33:47.031Z,99.09
2019-05-22T01:36:14.076Z,99.07
2019-05-22T01:38:41.426Z,99.00
2019-05-22T01:41:08.468Z,99.01
2019-05-22T01:43:35.831Z,98.99
2019-05-22T01:46:03.129Z,98.89
2019-05-22T01:48:30.179Z,98.87
2019-05-22T01:50:57.513Z,98.96
2019-05-22T01:53:24.796Z,99.00
2019-05-22T01:55:51.918Z,98.90
2019-05-22T01:58:18.981Z,98.89
2019-05-22T02:00:46.305Z,98.81
2019-05-22T02:03:13.647Z,98.65
2019-05-22T02:05:41.024Z,98.79
2019-05-22T02:08:08.151Z,98.87
2019-05-22T02:10:35.193Z,98.73
2019-05-22T02:13:02.476Z,98.66
2019-05-22T02:15:29.528Z,98.71
2019-05-22T02:17:57.650Z,98.77
2019-05-22T02:20:25.031Z,98.72
2019-05-22T02:22:52.407Z,98.48
2019-05-22T02:25:19.752Z,98.65
2019-05-22T02:27:47.117Z,98.73
2019-05-22T02:30:14.507Z,98.53
2019-05-22T02:32:41.807Z,98.60
2019-05-22T02:35:08.864Z,98.57
2019-05-22T02:37:36.218Z,98.65
2019-05-22T02:40:03.585Z,98.63
2019-05-22T02:42:30.994Z,98.69
2019-05-22T02:44:58.084Z,98.72
2019-05-22T02:47:25.375Z,98.72
2019-05-22T02:49:52.783Z,98.77
2019-05-22T02:52:20.139Z,98.73
2019-05-22T02:54:47.218Z,98.43
2019-05-22T02:57:14.248Z,98.47
2019-05-22T02:59:41.428Z,98.55
2019-05-22T03:02:08.465Z,98.57
2019-05-22T03:04:35.516Z,98.59
2019-05-22T03:07:02.804Z,98.58
2019-05-22T03:09:29.864Z,98.50
2019-05-22T03:11:57.260Z,98.43
2019-05-22T03:14:24.300Z,98.35
2019-05-22T03:16:51.361Z,98.22
2019-05-22T03:19:18.398Z,98.28
2019-05-22T03:21:45.766Z,98.37
2019-05-22T03:24:13.113Z,98.38
2019-05-22T03:26:40.182Z,98.36
2019-05-22T03:29:07.498Z,98.33
2019-05-22T03:31:34.814Z,98.41
2019-05-22T03:34:02.106Z,98.39
2019-05-22T03:36:29.455Z,98.48
2019-05-22T03:38:56.811Z,98.35
2019-05-22T03:41:23.879Z,98.46
2019-05-22T03:43:51.191Z,98.46
2019-05-22T03:46:18.570Z,98.49
2019-05-22T03:48:45.926Z,98.56
2019-05-22T03:51:13.340Z,98.59
2019-05-22T03:53:40.358Z,98.65
2019-05-22T03:56:07.418Z,98.65
2019-05-22T03:58:34.555Z,98.69
2019-05-22T04:01:01.616Z,98.75
2019-05-22T04:03:28.936Z,98.72
2019-05-22T04:05:56.016Z,98.67
2019-05-22T04:08:23.353Z,98.70
2019-05-22T04:10:50.416Z,98.74
2019-05-22T04:13:18.612Z,98.81
2019-05-22T04:15:46.013Z,98.87
2019-05-22T04:18:13.325Z,98.90
2019-05-22T04:20:40.750Z,98.90
2019-05-22T04:23:08.160Z,98.91
2019-05-22T04:25:35.557Z,98.96
2019-05-22T04:28:04.042Z,98.92
2019-05-22T04:30:31.393Z,98.91
2019-05-22T04:32:58.751Z,98.94
2019-05-22T04:35:25.799Z,98.86
2019-05-22T04:37:52.969Z,98.81
2019-05-22T04:40:20.301Z,98.77
2019-05-22T04:42:47.347Z,98.87
2019-05-22T04:45:14.385Z,98.80
2019-05-22T04:47:41.445Z,98.81
2019-05-22T04:50:09.963Z,98.74
2019-05-22T04:52:36.988Z,98.75
2019-05-22T04:55:04.028Z,98.71
2019-05-22T04:57:31.152Z,98.61
2019-05-22T04:59:58.525Z,98.28
2019-05-22T05:02:25.866Z,98.42
2019-05-22T05:04:52.908Z,98.39
2019-05-22T05:07:19.963Z,98.45
2019-05-22T05:09:47.008Z,98.29
2019-05-22T05:12:14.224Z,98.29
2019-05-22T05:14:41.631Z,98.22
2019-05-22T05:17:08.986Z,98.09
2019-05-22T05:19:37.112Z,97.94
2019-05-22T05:22:04.500Z,97.81
2019-05-22T05:24:31.859Z,97.56
2019-05-22T05:26:58.942Z,97.65
2019-05-22T05:29:26.033Z,97.73
2019-05-22T05:31:53.408Z,97.72
2019-05-22T05:34:20.466Z,97.59
2019-05-22T05:36:47.836Z,97.71
2019-05-22T05:39:15.143Z,97.68
2019-05-22T05:41:42.185Z,97.62
2019-05-22T05:44:09.239Z,97.69
2019-05-22T05:46:36.635Z,97.67
2019-05-22T05:49:03.745Z,97.62
2019-05-22T05:51:31.022Z,97.58
2019-05-22T05:53:58.076Z,97.67
2019-05-22T05:56:25.134Z,97.53
2019-05-22T05:58:52.222Z,97.57
2019-05-22T06:01:19.527Z,97.34
2019-05-22T06:03:46.876Z,97.10
2019-05-22T06:06:13.927Z,96.71
2019-05-22T06:08:40.993Z,96.44
2019-05-22T06:11:08.034Z,96.24
2019-05-22T06:13:35.392Z,96.21
2019-05-22T06:16:02.481Z,96.40
2019-05-22T06:18:29.899Z,96.13
2019-05-22T06:21:03.789Z,96.30
2019-05-22T06:23:26.241Z,96.27
2019-05-22T06:25:53.602Z,96.04
2019-05-22T06:28:20.938Z,96.09
2019-05-22T06:30:48.256Z,95.78
2019-05-22T06:33:15.653Z,95.80
2019-05-22T06:35:42.711Z,95.87
2019-05-22T06:38:10.048Z,95.87
2019-05-22T06:40:37.457Z,95.98
2019-05-22T06:43:04.705Z,96.05
2019-05-22T06:45:31.764Z,96.12
2019-05-22T06:47:59.063Z,96.10
2019-05-22T06:50:26.418Z,96.25
2019-05-22T06:53:08.904Z,96.47
2019-05-22T06:55:22.561Z,96.53
2019-05-22T06:57:49.932Z,96.79
2019-05-22T07:00:16.992Z,96.55
2019-05-22T07:02:44.107Z,96.75
2019-05-22T07:05:11.485Z,96.85
2019-05-22T07:07:38.780Z,96.88
2019-05-22T07:10:06.187Z,96.94
2019-05-22T07:12:33.558Z,97.02
2019-05-22T07:15:00.715Z,96.94
2019-05-22T07:17:29.493Z,97.07
2019-05-22T07:19:56.829Z,97.03
2019-05-22T07:22:23.887Z,97.00
2019-05-22T07:24:51.233Z,97.13
2019-05-22T07:27:18.595Z,97.15
2019-05-22T07:29:45.941Z,96.81
2019-05-22T07:32:13.320Z,96.78
2019-05-22T07:34:40.366Z,96.88
2019-05-22T07:37:07.700Z,96.71
2019-05-22T07:39:35.059Z,96.76
2019-05-22T07:42:02.187Z,96.68
2019-05-22T07:44:29.230Z,96.61
2019-05-22T07:46:56.609Z,96.64
2019-05-22T07:49:24.829Z,96.43
2019-05-22T07:52:00.697Z,96.32
2019-05-22T07:54:20.861Z,96.26
2019-05-22T07:56:48.288Z,95.94
2019-05-22T07:59:15.334Z,95.86
2019-05-22T08:01:42.690Z,95.87
2019-05-22T08:04:10.041Z,95.83
2019-05-22T08:06:37.397Z,95.70
2019-05-22T08:09:04.449Z,95.55
2019-05-22T08:11:31.857Z,95.47
2019-05-22T08:13:59.309Z,95.53
2019-05-22T08:16:26.366Z,95.25
2019-05-22T08:18:53.410Z,95.00
2019-05-22T08:21:23.379Z,93.96
2019-05-22T08:23:49.497Z,93.74
2019-05-22T08:26:16.899Z,93.25
2019-05-22T08:28:44.210Z,92.73
2019-05-22T08:31:11.565Z,92.17
2019-05-22T08:33:38.620Z,91.77
2019-05-22T08:36:05.721Z,92.40
2019-05-22T08:38:33.021Z,92.32
2019-05-22T08:41:00.063Z,91.67
2019-05-22T08:43:27.419Z,91.50
2019-05-22T08:45:54.713Z,91.06
2019-05-22T08:48:22.126Z,90.66
2019-05-22T08:50:49.525Z,90.42
2019-05-22T08:53:16.944Z,91.03
2019-05-22T08:55:44.297Z,90.77
2019-05-22T08:58:11.372Z,91.22
2019-05-22T09:00:38.409Z,91.22
2019-05-22T09:03:05.467Z,91.11
2019-05-22T09:05:32.518Z,91.26
2019-05-22T09:07:59.952Z,91.29
2019-05-22T09:10:27.305Z,91.43
2019-05-22T09:12:54.656Z,91.10
2019-05-22T09:15:21.716Z,91.12
2019-05-22T09:17:48.847Z,91.33
2019-05-22T09:20:16.203Z,91.10
2019-05-22T09:22:43.537Z,91.31
2019-05-22T09:25:10.623Z,91.47
2019-05-22T09:27:38.088Z,91.75
2019-05-22T09:30:05.189Z,91.27
2019-05-22T09:32:32.596Z,91.03
2019-05-22T09:34:59.636Z,90.83
2019-05-22T09:37:26.697Z,90.84
2019-05-22T09:39:54.026Z,90.39
2019-05-22T09:42:21.377Z,90.04
2019-05-22T09:44:48.736Z,89.85
2019-05-22T09:47:15.798Z,89.98
2019-05-22T09:49:43.161Z,89.98
2019-05-22T09:52:10.231Z,89.66
2019-05-22T09:54:37.645Z,89.41
2019-05-22T09:57:04.976Z,89.65
2019-05-22T09:59:32.354Z,89.96
2019-05-22T10:01:59.708Z,89.74
2019-05-22T10:04:27.070Z,89.68
2019-05-22T10:06:54.193Z,89.17
2019-05-22T10:09:21.609Z,89.52
2019-05-22T10:11:49.026Z,88.82
2019-05-22T10:14:16.343Z,88.65
2019-05-22T10:16:43.741Z,89.15
2019-05-22T10:19:11.089Z,89.12
2019-05-22T10:21:38.136Z,89.58
2019-05-22T10:24:06.620Z,89.15
2019-05-22T10:26:33.669Z,88.83
2019-05-22T10:29:01.043Z,88.64
2019-05-22T10:31:29.509Z,88.85
2019-05-22T10:33:56.574Z,88.28
2019-05-22T10:36:23.617Z,88.41
2019-05-22T10:38:51.077Z,88.39
2019-05-22T10:41:18.121Z,88.54
2019-05-22T10:43:45.180Z,88.96
2019-05-22T10:46:12.797Z,89.06
2019-05-22T10:48:40.803Z,88.49
2019-05-22T10:51:08.248Z,88.53
2019-05-22T10:53:35.308Z,88.62
2019-05-22T10:56:02.890Z,88.14
2019-05-22T10:58:29.985Z,88.18
2019-05-22T11:00:57.030Z,88.53
2019-05-22T11:03:24.084Z,88.98
2019-05-22T11:06:05.585Z,88.32
2019-05-22T11:08:20.301Z,88.96
2019-05-22T11:10:47.301Z,89.63
2019-05-22T11:13:14.645Z,89.73
2019-05-22T11:15:41.997Z,90.17
2019-05-22T11:18:09.060Z,90.37
2019-05-22T11:20:36.405Z,90.61
2019-05-22T11:23:03.784Z,91.01
2019-05-22T11:25:31.136Z,91.23
2019-05-22T11:27:58.177Z,91.46
2019-05-22T11:30:25.244Z,91.78
2019-05-22T11:32:52.286Z,91.59
2019-05-22T11:35:19.347Z,91.76
2019-05-22T11:37:46.662Z,92.12
2019-05-22T11:40:13.720Z,92.48
2019-05-22T11:42:41.085Z,92.50
2019-05-22T11:45:08.124Z,92.34
2019-05-22T11:47:35.466Z,92.78
2019-05-22T11:50:02.562Z,92.86
2019-05-22T11:52:30.000Z,92.90
2019-05-22T11:54:57.324Z,92.95
2019-05-22T11:57:24.374Z,92.77
2019-05-22T11:59:51.787Z,93.12
2019-05-22T12:02:18.826Z,92.90
2019-05-22T12:04:48.681Z,92.97
2019-05-22T12:07:15.050Z,92.99
2019-05-22T12:09:42.402Z,92.92
2019-05-22T12:12:09.765Z,92.77
2019-05-22T12:14:37.072Z,92.68
2019-05-22T12:17:04.447Z,92.37
2019-05-22T12:19:31.808Z,92.24
2019-05-22T12:21:59.167Z,92.15
2019-05-22T12:24:32.448Z,92.02
2019-05-22T12:26:55.280Z,91.53
2019-05-22T12:29:23.680Z,90.86
2019-05-22T12:31:50.775Z,88.36
2019-05-22T12:34:18.259Z,86.57
2019-05-22T12:36:45.650Z,86.05
2019-05-22T12:39:12.711Z,85.25
2019-05-22T12:41:40.107Z,84.97
2019-05-22T12:44:07.508Z,85.57
2019-05-22T12:46:34.859Z,85.12
2019-05-22T12:49:01.905Z,84.29
2019-05-22T12:51:29.276Z,85.34
2019-05-22T12:53:56.324Z,86.25
2019-05-22T12:56:23.661Z,86.32
2019-05-22T12:58:51.019Z,85.76
2019-05-22T13:01:18.375Z,84.46
2019-05-22T13:03:45.417Z,82.60
2019-05-22T13:06:12.473Z,82.42
2019-05-22T13:08:39.825Z,81.52
2019-05-22T13:11:06.887Z,82.25
2019-05-22T13:13:33.930Z,82.59
2019-05-22T13:16:01.063Z,81.55
2019-05-22T13:18:28.123Z,81.51
2019-05-22T13:20:55.180Z,81.17
2019-05-22T13:23:22.220Z,79.66
2019-05-22T13:25:49.574Z,77.94
2019-05-22T13:28:17.029Z,77.36
2019-05-22T13:30:44.089Z,77.88
2019-05-22T13:33:11.139Z,76.49
2019-05-22T13:35:38.201Z,73.83
2019-05-22T13:38:05.551Z,76.90
2019-05-22T13:40:32.606Z,77.58
2019-05-22T13:42:59.932Z,76.57
2019-05-22T13:45:29.791Z,76.03
2019-05-22T13:47:56.094Z,76.66
2019-05-22T13:50:23.451Z,75.54
2019-05-22T13:52:50.808Z,75.15
2019-05-22T13:55:17.869Z,75.60
2019-05-22T13:57:46.283Z,73.82
2019-05-22T14:00:13.343Z,74.41
2019-05-22T14:02:40.405Z,73.36
2019-05-22T14:05:07.782Z,73.84
2019-05-22T14:07:35.137Z,75.30
2019-05-22T14:10:02.535Z,73.91
2019-05-22T14:12:29.992Z,73.84
2019-05-22T14:14:57.079Z,72.98
2019-05-22T14:17:24.139Z,72.96
2019-05-22T14:19:51.609Z,71.22
2019-05-22T14:22:18.944Z,73.33
2019-05-22T14:24:45.987Z,73.39
2019-05-22T14:27:13.044Z,73.79
2019-05-22T14:29:40.412Z,74.23
2019-05-22T14:32:07.482Z,73.65
2019-05-22T14:34:34.799Z,71.66
2019-05-22T14:37:02.148Z,72.74
2019-05-22T14:39:29.188Z,71.76
2019-05-22T14:41:56.553Z,71.65
2019-05-22T14:44:23.608Z,72.07
2019-05-22T14:46:50.681Z,70.57
2019-05-22T14:49:20.815Z,69.79
2019-05-22T14:51:46.769Z,70.47
2019-05-22T14:54:14.794Z,69.00
2019-05-22T14:56:41.844Z,69.20
2019-05-22T14:59:08.888Z,69.12
2019-05-22T15:01:36.213Z,69.99
2019-05-22T15:04:03.572Z,69.94
2019-05-22T15:06:30.650Z,70.30
2019-05-22T15:08:57.973Z,68.52
2019-05-22T15:11:25.328Z,68.24
2019-05-22T15:13:52.380Z,67.84
2019-05-22T15:16:19.442Z,69.02
2019-05-22T15:18:46.778Z,67.49
2019-05-22T15:21:13.835Z,68.28
2019-05-22T15:23:41.182Z,69.27
2019-05-22T15:26:08.247Z,67.00
2019-05-22T15:28:35.894Z,67.76
2019-05-22T15:31:02.958Z,69.23
2019-05-22T15:33:30.325Z,69.17
2019-05-22T15:35:57.373Z,67.69
2019-05-22T15:38:24.447Z,69.87
2019-05-22T15:41:05.061Z,70.09
2019-05-22T15:43:32.435Z,69.28
2019-05-22T15:45:59.511Z,69.12
2019-05-22T15:51:11.144Z,69.69
2019-05-22T15:53:44.125Z,70.02
2019-05-22T16:02:01.364Z,70.99
2019-05-22T16:04:29.296Z,71.26
2019-05-22T16:06:56.504Z,71.43
2019-05-22T16:09:26.897Z,71.87
2019-05-22T16:11:59.979Z,71.90
2019-05-22T16:17:27.039Z,71.42
2019-05-22T16:19:56.516Z,70.85
2019-05-22T16:22:26.906Z,71.94
2019-05-22T16:24:56.333Z,72.25
2019-05-22T16:27:23.553Z,72.02
2019-05-22T16:29:50.602Z,71.82
2019-05-22T16:32:22.835Z,71.05
2019-05-22T16:34:56.882Z,71.25
2019-05-22T16:37:26.092Z,71.07
2019-05-22T16:40:12.129Z,71.02
2019-05-22T16:45:27.065Z,71.44
2019-05-22T17:01:12.424Z,71.40
2019-05-22T17:03:44.492Z,71.62
2019-05-22T17:06:23.914Z,72.53
2019-05-22T17:08:52.469Z,73.00
2019-05-22T17:11:20.975Z,72.40
2019-05-22T17:13:52.547Z,72.47
2019-05-22T17:16:23.443Z,73.21
2019-05-22T17:18:52.689Z,72.76
2019-05-22T17:24:12.645Z,72.11
2019-05-22T17:26:43.509Z,71.98
2019-05-22T17:29:11.723Z,72.08
2019-05-22T17:31:47.234Z,72.96
2019-05-22T17:34:18.867Z,73.00
2019-05-22T17:36:57.326Z,73.09
2019-05-22T17:39:24.934Z,73.34
2019-05-22T17:41:57.258Z,73.54
2019-05-22T17:47:16.717Z,73.62
2019-05-22T17:49:45.224Z,74.06
2019-05-22T17:52:19.411Z,74.64
2019-05-22T17:54:46.888Z,74.78
2019-05-22T18:02:53.514Z,74.54
2019-05-22T18:07:57.085Z,74.61
2019-05-22T18:10:25.689Z,74.48
2019-05-22T18:13:07.999Z,74.54
2019-05-22T18:26:16.454Z,75.89
2019-05-22T18:28:43.935Z,75.76
2019-05-22T18:31:10.976Z,76.05
2019-05-22T18:36:13.607Z,75.71
2019-05-22T18:38:40.864Z,75.55
2019-05-22T18:41:26.336Z,75.91
2019-05-22T18:43:53.960Z,76.13
2019-05-22T18:49:24.661Z,76.02
2019-05-22T18:52:08.348Z,76.21
2019-05-22T18:57:17.190Z,76.12
2019-05-22T18:59:44.918Z,76.41
2019-05-22T19:02:18.276Z,76.58
2019-05-22T19:04:46.841Z,76.84
2019-05-22T19:07:24.353Z,76.80
2019-05-22T19:09:52.907Z,76.65
2019-05-22T19:15:26.993Z,77.44
2019-05-22T19:20:58.164Z,77.75
2019-05-22T19:23:41.781Z,78.16
2019-05-22T19:26:12.882Z,78.67
2019-05-22T19:28:51.217Z,78.27
2019-05-22T19:31:20.828Z,78.57
2019-05-22T19:33:58.848Z,78.48
2019-05-22T19:39:20.292Z,78.84
2019-05-22T19:54:58.193Z,79.15
2019-05-22T20:00:22.620Z,79.95
2019-05-22T20:02:50.801Z,80.04
2019-05-22T20:05:18.377Z,80.16
2019-05-22T20:07:46.064Z,80.64
2019-05-22T20:10:14.450Z,80.98
2019-05-22T20:12:41.979Z,81.19
2019-05-22T20:15:09.044Z,81.70
2019-05-22T20:17:36.369Z,82.08
2019-05-22T20:20:04.554Z,81.97
2019-05-22T20:22:32.119Z,82.12
2019-05-22T20:24:59.473Z,81.98
2019-05-22T20:27:26.580Z,82.33
2019-05-22T20:29:53.629Z,83.07
2019-05-22T20:32:20.666Z,83.67
2019-05-22T20:34:47.795Z,84.21
2019-05-22T20:37:15.123Z,85.18
2019-05-22T20:39:42.188Z,85.12
2019-05-22T20:42:09.535Z,84.84
2019-05-22T20:44:36.573Z,84.50
2019-05-22T20:47:04.604Z,84.30
2019-05-22T20:49:31.631Z,83.96
2019-05-22T20:51:58.687Z,83.72
2019-05-22T20:54:25.723Z,83.50
2019-05-22T20:56:52.779Z,83.37
2019-05-22T20:59:19.823Z,83.45
2019-05-22T21:01:47.049Z,83.60
2019-05-22T21:04:14.340Z,83.69
2019-05-22T21:06:41.408Z,83.61
2019-05-22T21:09:08.795Z,83.65
2019-05-22T21:11:35.853Z,83.59
2019-05-22T21:14:02.974Z,83.54
2019-05-22T21:16:30.028Z,83.55
2019-05-22T21:18:57.072Z,83.39
2019-05-22T21:21:24.444Z,83.29
2019-05-22T21:23:51.489Z,83.14
2019-05-22T21:26:18.852Z,83.13
2019-05-22T21:28:46.201Z,83.39
2019-05-22T21:31:13.559Z,83.48
2019-05-22T21:33:40.594Z,83.32
2019-05-22T21:36:07.647Z,83.08
2019-05-22T21:38:35.013Z,83.22
2019-05-22T21:41:02.379Z,83.13
2019-05-22T21:43:29.729Z,83.17
2019-05-22T21:45:56.773Z,83.26
2019-05-22T21:48:23.841Z,83.38
2019-05-22T21:50:50.867Z,83.45
2019-05-22T21:53:18.237Z,83.48
2019-05-22T21:55:45.802Z,83.63
2019-05-22T21:58:14.054Z,84.06
2019-05-22T22:00:41.098Z,84.35
2019-05-22T22:03:08.679Z,84.60
2019-05-22T22:05:37.163Z,84.68
2019-05-22T22:08:04.518Z,84.80
2019-05-22T22:10:31.854Z,84.90
2019-05-22T22:12:59.166Z,85.18
2019-05-22T22:15:26.289Z,85.08
2019-05-22T22:17:53.715Z,85.07
2019-05-22T22:20:20.758Z,85.17
2019-05-22T22:22:48.137Z,85.15
2019-05-22T22:25:15.183Z,85.12
2019-05-22T22:27:42.540Z,85.21
2019-05-22T22:30:09.581Z,85.54
2019-05-22T22:32:36.639Z,85.58
2019-05-22T22:35:03.970Z,85.64
2019-05-22T22:37:31.094Z,85.70
2019-05-22T22:39:58.127Z,85.77
2019-05-22T22:42:25.189Z,85.78
2019-05-22T22:44:52.227Z,85.82
2019-05-22T22:47:19.285Z,85.82
2019-05-22T22:49:46.317Z,86.10
2019-05-22T22:52:13.378Z,86.29
2019-05-22T22:54:40.412Z,86.37
2019-05-22T22:57:07.473Z,86.42
2019-05-22T22:59:34.758Z,86.32
2019-05-22T23:02:02.114Z,86.26
2019-05-22T23:04:29.176Z,86.27
2019-05-22T23:06:56.216Z,86.31
2019-05-22T23:09:23.263Z,86.59
2019-05-22T23:11:50.627Z,87.24
2019-05-22T23:14:17.686Z,87.47
2019-05-22T23:16:44.728Z,87.43
2019-05-22T23:19:11.854Z,87.41
2019-05-22T23:21:39.211Z,88.06
2019-05-22T23:24:06.569Z,88.27
2019-05-22T23:26:33.856Z,88.21
2019-05-22T23:29:00.910Z,88.20
2019-05-22T23:31:27.946Z,88.29
2019-05-22T23:33:55.297Z,88.60
2019-05-22T23:36:22.326Z,88.64
2019-05-22T23:38:49.671Z,88.71
2019-05-22T23:41:16.706Z,88.55
2019-05-22T23:43:44.073Z,88.47
2019-05-22T23:46:11.118Z,88.52
2019-05-22T23:48:38.480Z,88.61
2019-05-22T23:51:05.774Z,88.94
2019-05-22T23:53:33.092Z,89.43
2019-05-22T23:56:00.444Z,89.50
2019-05-22T23:58:27.819Z,89.49
